Terminal Aerodrome Forecast
Issued by NWS

Home | Current Version | Previous Version | Text Only | Print | Product List | Glossary On
Versions: 1 2 3 4 5 6 7 8 9 10 11 12 13 14 15 16 17 18 19 20
000
FTUS43 KICT 220520
TAFSLN
TAF
KSLN 220520Z 2206/2306 08006KT P6SM FEW040 BKN250
     FM221200 11006KT P6SM VCSH BKN025 OVC050
      TEMPO 2212/2215 5SM -RA OVC025
     FM221500 11008KT 4SM -RA SCT007 BKN015
     FM230000 14011KT 2SM BR VCSH BKN007 OVC015=

USA.gov is the U.S. government's official web portal to all federal, state and local government web resources and services.